Time;durP1;ratioP1;P1;durP2;ratioP2;P2;SDS_P1;SDS_P2;PMS_P1;PMS_P2;Temp;Humidity;BMP_temperature;BMP_pressure;BME280_temperature;BME280_humidity;BME280_pressure;Samples;Min_cycle;Max_cycle;Signal;HPM_P1;HPM_P2
2022/03/16 00:01:02;;;;;;;;;14.25;14.25;;;;;12.18;75.33;101390.19;5045157;28;46972;-86
2022/03/16 00:03:28;;;;;;;;;18.00;18.00;;;;;12.32;75.77;101407.09;5050718;28;45225;-83
2022/03/16 00:05:54;;;;;;;;;19.50;18.50;;;;;12.17;75.21;101385.78;5039825;28;45497;-87
2022/03/16 00:08:19;;;;;;;;;20.25;17.25;;;;;12.01;75.34;101358.31;5041974;28;45562;-86
2022/03/16 00:10:45;;;;;;;;;19.00;19.00;;;;;12.08;75.44;101365.41;5037270;28;45220;-87
2022/03/16 00:13:10;;;;;;;;;20.00;16.50;;;;;12.32;75.38;101403.56;5035926;28;45270;-84
2022/03/16 00:15:35;;;;;;;;;19.50;18.75;;;;;12.21;75.58;101385.84;5037122;28;45354;-81
2022/03/16 00:18:01;;;;;;;;;18.75;18.75;;;;;12.27;74.96;101392.91;5067144;28;45438;-82
2022/03/16 00:20:27;;;;;;;;;20.75;20.25;;;;;12.06;74.76;101353.06;5036513;28;45534;-80
2022/03/16 00:22:52;;;;;;;;;25.00;21.50;;;;;12.15;75.03;101375.19;5036193;28;45343;-77
2022/03/16 00:25:18;;;;;;;;;21.25;21.25;;;;;12.37;74.45;101412.41;5037124;28;46418;-79
2022/03/16 00:27:43;;;;;;;;;22.50;22.25;;;;;11.89;74.85;101335.28;5035928;28;45350;-78
2022/03/16 00:30:10;;;;;;;;;22.00;20.00;;;;;12.35;74.43;101414.16;5036192;28;45352;-77
2022/03/16 00:32:35;;;;;;;;;18.00;16.75;;;;;12.36;74.40;101406.22;5037997;28;45378;-80
2022/03/16 00:35:01;;;;;;;;;21.25;20.00;;;;;12.16;74.93;101371.69;5035217;28;45492;-75
2022/03/16 00:37:28;;;;;;;;;19.75;18.50;;;;;12.40;74.49;101409.81;5036994;28;45631;-78
2022/03/16 00:39:53;;;;;;;;;20.75;18.00;;;;;12.11;74.31;101354.03;5036387;28;46043;-78
2022/03/16 00:42:19;;;;;;;;;16.75;16.00;;;;;12.44;74.55;101399.28;5035542;28;46549;-77
2022/03/16 00:44:44;;;;;;;;;17.75;17.00;;;;;12.20;74.83;101356.78;5036581;28;45323;-79
2022/03/16 00:47:10;;;;;;;;;20.25;19.50;;;;;12.25;74.27;101371.78;5040971;28;45341;-78
2022/03/16 00:49:35;;;;;;;;;18.75;18.75;;;;;12.07;74.39;101341.63;5039815;28;45546;-78
2022/03/16 00:52:02;;;;;;;;;19.50;17.75;;;;;12.43;74.37;101397.50;5038842;28;46331;-77
2022/03/16 00:54:28;;;;;;;;;19.75;15.25;;;;;12.42;73.78;101393.09;5045163;28;45631;-77
2022/03/16 00:56:54;;;;;;;;;19.00;17.00;;;;;12.43;74.69;101386.06;5041867;28;45404;-77
2022/03/16 00:59:20;;;;;;;;;17.75;17.75;;;;;12.32;73.81;101367.44;5039532;28;45394;-77
2022/03/16 01:01:45;;;;;;;;;19.75;17.75;;;;;12.44;74.12;101387.81;5040760;28;45447;-84
2022/03/16 01:04:11;;;;;;;;;18.75;17.00;;;;;12.43;74.44;101378.13;5039634;28;45443;-81
2022/03/16 01:06:36;;;;;;;;;18.50;18.50;;;;;12.45;74.13;101379.91;5045128;28;45371;-76
2022/03/16 01:09:02;;;;;;;;;17.50;17.25;;;;;12.30;73.92;101348.06;5039399;28;45344;-76
2022/03/16 01:11:27;;;;;;;;;21.25;19.75;;;;;12.03;74.08;101297.59;5039927;28;45588;-78
2022/03/16 01:13:53;;;;;;;;;18.25;17.75;;;;;12.46;73.67;101365.81;5040009;28;45237;-80
2022/03/16 01:16:18;;;;;;;;;19.50;19.50;;;;;12.48;73.92;101365.88;5039661;28;45315;-80
2022/03/16 01:18:43;;;;;;;;;18.50;17.00;;;;;12.46;73.74;101364.94;5042834;28;45490;-77
2022/03/16 01:21:09;;;;;;;;;17.75;16.25;;;;;12.22;73.33;101320.69;5040861;28;46098;-86
2022/03/16 01:23:36;;;;;;;;;16.75;14.75;;;;;12.35;73.23;101348.09;5038576;28;45479;-80
2022/03/16 01:26:02;;;;;;;;;17.50;16.00;;;;;12.43;73.85;101357.88;5038374;28;45541;-78
2022/03/16 01:28:28;;;;;;;;;21.00;17.50;;;;;11.84;73.96;101249.00;5040777;28;45572;-86
2022/03/16 01:30:53;;;;;;;;;17.00;14.50;;;;;12.15;73.42;101306.53;5034263;28;46775;-82
2022/03/16 01:33:19;;;;;;;;;16.00;15.00;;;;;12.40;73.71;101349.03;5040321;28;45426;-84
2022/03/16 01:35:45;;;;;;;;;16.75;16.75;;;;;12.30;72.99;101329.56;5040635;28;45422;-86
2022/03/16 01:38:10;;;;;;;;;14.75;14.75;;;;;12.08;73.84;101282.66;5041186;28;45369;-83
2022/03/16 01:40:36;;;;;;;;;14.50;14.50;;;;;12.03;73.78;101287.91;5039108;28;45985;-85
2022/03/16 01:43:01;;;;;;;;;16.75;16.25;;;;;11.64;73.38;101219.72;5048750;28;45519;-80
2022/03/16 01:45:27;;;;;;;;;18.75;16.25;;;;;11.96;73.55;101276.41;5043803;28;45565;-83
2022/03/16 01:47:53;;;;;;;;;18.75;15.75;;;;;11.98;74.18;101287.84;5042919;28;45457;-87
2022/03/16 01:50:18;;;;;;;;;16.75;14.00;;;;;12.26;73.74;101338.31;5040986;28;45503;-87
2022/03/16 01:52:44;;;;;;;;;15.25;13.75;;;;;12.12;73.51;101321.47;5042515;28;45257;-87
2022/03/16 01:55:10;;;;;;;;;16.25;16.25;;;;;12.24;73.60;101332.16;5041752;28;45450;-86
2022/03/16 01:57:39;;;;;;;;;13.75;13.75;;;;;12.24;73.60;101332.16;5054908;28;45509;-87
2022/03/16 02:00:06;;;;;;;;;24.00;16.75;;;;;12.17;73.50;101340.88;5060301;28;45488;-83
2022/03/16 02:02:33;;;;;;;;;17.25;14.25;;;;;11.89;73.74;101294.78;5058192;28;45576;-82
2022/03/16 02:04:59;;;;;;;;;20.00;16.25;;;;;12.11;73.73;101340.81;5068746;28;45532;-83
2022/03/16 02:07:24;;;;;;;;;14.25;13.25;;;;;12.07;73.63;101331.97;5056984;28;45468;-85
2022/03/16 02:09:52;;;;;;;;;17.50;15.00;;;;;11.88;73.32;101307.09;5093041;27;47080;-79
2022/03/16 02:12:17;;;;;;;;;17.00;16.25;;;;;12.06;73.57;101331.94;5075190;28;45548;-85
2022/03/16 02:14:42;;;;;;;;;16.00;15.00;;;;;11.83;73.86;101290.34;5059587;28;44629;-85
2022/03/16 02:17:08;;;;;;;;;14.25;14.25;;;;;11.78;73.62;101270.88;5068288;28;45672;-80
2022/03/16 02:19:34;;;;;;;;;20.50;19.00;;;;;12.12;73.67;101340.84;5097934;28;46120;-83
2022/03/16 02:22:02;;;;;;;;;17.50;16.50;;;;;11.97;74.13;101317.78;5062847;28;45297;-85
2022/03/16 02:24:31;;;;;;;;;21.00;17.75;;;;;12.11;74.05;101338.19;5075443;28;45553;-85
2022/03/16 02:26:57;;;;;;;;;15.75;15.25;;;;;12.08;73.83;101336.38;5067166;28;45671;-86
2022/03/16 02:29:23;;;;;;;;;18.50;18.50;;;;;12.10;73.40;101341.66;5077785;28;45241;-86
2022/03/16 02:31:49;;;;;;;;;21.00;18.75;;;;;12.05;74.44;101335.47;5077091;28;45471;-84
2022/03/16 02:34:14;;;;;;;;;18.75;17.75;;;;;11.95;74.02;101322.16;5075268;28;45416;-84
2022/03/16 02:36:40;;;;;;;;;20.75;20.75;;;;;11.92;74.55;101311.56;5064721;28;45445;-84
2022/03/16 02:39:05;;;;;;;;;23.00;23.00;;;;;11.77;74.55;101281.44;5074743;28;45525;-85
2022/03/16 02:41:32;;;;;;;;;21.25;20.00;;;;;11.92;74.42;101316.84;5075960;28;45561;-86
2022/03/16 02:43:58;;;;;;;;;21.00;20.75;;;;;11.52;74.44;101251.22;5077186;28;45341;-84
2022/03/16 02:46:23;;;;;;;;;14.00;14.00;;;;;11.76;75.00;101298.16;5077781;28;45212;-85
2022/03/16 02:48:49;;;;;;;;;23.25;20.50;;;;;11.59;74.81;101290.03;5071353;28;45492;-83
2022/03/16 02:51:15;;;;;;;;;23.75;18.75;;;;;11.39;75.44;101258.13;5064910;28;45453;-79
2022/03/16 02:53:41;;;;;;;;;15.75;14.50;;;;;11.76;74.99;101316.63;5083009;28;45289;-77
2022/03/16 02:56:07;;;;;;;;;21.00;19.75;;;;;11.65;75.84;101304.19;5083697;28;45282;-79
2022/03/16 02:58:33;;;;;;;;;20.25;19.75;;;;;11.44;75.74;101280.16;5072712;28;45469;-80
2022/03/16 03:00:58;;;;;;;;;18.25;14.25;;;;;11.55;75.79;101285.59;5076850;28;45456;-84
2022/03/16 03:03:24;;;;;;;;;20.50;18.00;;;;;11.48;75.78;101281.97;5078558;28;45299;-80
2022/03/16 03:05:51;;;;;;;;;23.50;22.50;;;;;11.60;75.63;101302.34;5058542;28;47313;-77
2022/03/16 03:08:17;;;;;;;;;21.25;20.50;;;;;11.48;76.20;101304.84;5063067;28;46159;-76
2022/03/16 03:10:42;;;;;;;;;25.00;22.75;;;;;11.25;76.49;101262.31;5066672;28;45338;-82
2022/03/16 03:13:07;;;;;;;;;29.00;23.25;;;;;11.23;76.01;101262.31;5073860;28;45586;-76
2022/03/16 03:15:33;;;;;;;;;22.00;20.75;;;;;11.25;76.23;101270.22;5074881;28;45252;-78
2022/03/16 03:17:58;;;;;;;;;18.50;18.25;;;;;11.62;76.08;101316.44;5077070;28;45977;-77
2022/03/16 03:20:24;;;;;;;;;24.25;23.25;;;;;11.62;76.50;101308.53;5066173;28;45386;-85
2022/03/16 03:22:49;;;;;;;;;25.50;24.50;;;;;11.46;75.45;101285.47;5070228;28;45330;-83
2022/03/16 03:25:15;;;;;;;;;20.25;19.25;;;;;11.23;75.65;101248.25;5077249;28;45361;-81
2022/03/16 03:27:41;;;;;;;;;23.50;20.00;;;;;11.60;75.73;101295.31;5076688;28;46384;-77
2022/03/16 03:30:08;;;;;;;;;24.25;23.25;;;;;11.60;76.07;101302.34;5083223;28;45485;-76
2022/03/16 03:32:33;;;;;;;;;20.75;20.00;;;;;11.25;75.40;101226.28;5079196;28;45551;-80
2022/03/16 03:34:59;;;;;;;;;22.75;20.50;;;;;11.30;75.80;101232.53;5070113;28;45497;-81
2022/03/16 03:37:31;;;;;;;;;25.50;22.75;;;;;11.54;76.39;101273.22;5072980;28;46576;-80
2022/03/16 03:39:57;;;;;;;;;24.75;20.25;;;;;11.78;75.35;101310.47;5077134;28;45410;-77
2022/03/16 03:42:23;;;;;;;;;20.50;19.25;;;;;11.40;75.45;101255.50;5072243;28;45220;-86
2022/03/16 03:44:49;;;;;;;;;28.25;26.00;;;;;11.49;74.96;101277.59;5078952;28;45394;-80
2022/03/16 03:47:14;;;;;;;;;24.25;22.00;;;;;11.43;75.32;101262.56;5059086;28;45525;-77
2022/03/16 03:49:42;;;;;;;;;26.50;22.75;;;;;11.41;75.44;101262.53;5057919;28;45395;-76
2022/03/16 03:52:08;;;;;;;;;24.50;23.25;;;;;11.72;75.85;101313.03;5069527;28;45475;-81
2022/03/16 03:54:34;;;;;;;;;28.75;22.25;;;;;11.50;75.51;101279.34;5077527;28;45600;-83
2022/03/16 03:57:00;;;;;;;;;25.25;23.50;;;;;11.56;75.70;101305.81;5073800;28;45325;-79
2022/03/16 03:59:25;;;;;;;;;30.25;24.25;;;;;11.49;76.40;101296.94;5073947;28;45336;-85
2022/03/16 04:01:51;;;;;;;;;23.75;23.25;;;;;11.30;75.71;101276.47;5072645;28;45393;-83
2022/03/16 04:04:17;;;;;;;;;25.75;23.75;;;;;11.41;76.86;101310.03;5080734;28;45282;-81
2022/03/16 04:06:43;;;;;;;;;24.25;21.00;;;;;11.29;76.73;101285.25;5081477;28;45856;-84
2022/03/16 04:09:09;;;;;;;;;25.50;23.25;;;;;11.49;76.49;101320.69;5074797;28;45769;-82
2022/03/16 04:11:34;;;;;;;;;27.75;24.50;;;;;11.39;76.94;101310.88;5070615;28;45612;-82
2022/03/16 04:14:00;;;;;;;;;22.75;22.25;;;;;11.45;76.91;101316.25;5072973;28;45624;-85
2022/03/16 04:16:26;;;;;;;;;24.00;22.75;;;;;11.43;76.46;101307.41;5069153;28;45898;-85
2022/03/16 04:18:51;;;;;;;;;27.25;24.50;;;;;11.05;76.90;101255.03;5060024;28;45409;-86
2022/03/16 04:21:17;;;;;;;;;24.50;22.75;;;;;10.90;76.59;101222.31;5075206;28;45246;-82
2022/03/16 04:23:42;;;;;;;;;27.50;25.50;;;;;11.24;77.22;101277.25;5067876;28;45445;-75
2022/03/16 04:26:08;;;;;;;;;26.75;23.00;;;;;11.19;77.15;101265.78;5069528;28;46694;-78
2022/03/16 04:28:34;;;;;;;;;26.00;23.75;;;;;11.16;77.99;101268.34;5065196;28;45742;-79
2022/03/16 04:31:00;;;;;;;;;27.50;26.75;;;;;11.02;77.45;101243.56;5057173;28;45695;-77
2022/03/16 04:33:29;;;;;;;;;27.00;25.50;;;;;11.25;77.87;101283.41;5068721;28;45241;-78
2022/03/16 04:35:55;;;;;;;;;28.00;26.50;;;;;10.89;77.73;101221.44;5064506;28;45540;-77
2022/03/16 04:38:20;;;;;;;;;21.50;21.50;;;;;11.21;78.05;101287.78;5055730;28;45344;-77
2022/03/16 04:40:47;;;;;;;;;22.25;22.25;;;;;10.73;77.51;101214.19;5058460;28;45306;-75
2022/03/16 04:43:13;;;;;;;;;22.75;22.75;;;;;11.17;78.41;101279.78;5062968;28;45345;-78
2022/03/16 04:45:39;;;;;;;;;23.75;23.00;;;;;11.16;77.25;101270.13;5058674;28;45440;-77
2022/03/16 04:48:07;;;;;;;;;24.75;23.25;;;;;10.91;77.68;101245.19;5056908;28;45295;-78
2022/03/16 04:50:34;;;;;;;;;22.75;22.75;;;;;11.14;77.83;101262.19;5058925;28;45273;-77
2022/03/16 04:52:59;;;;;;;;;27.25;25.25;;;;;10.99;78.56;101251.44;5064097;28;45449;-79
2022/03/16 04:55:25;;;;;;;;;23.50;22.25;;;;;11.05;78.29;101262.06;5082751;28;46143;-77
2022/03/16 04:57:50;;;;;;;;;26.75;26.75;;;;;11.04;78.12;101255.91;5081001;28;45377;-77
2022/03/16 05:00:16;;;;;;;;;28.75;24.25;;;;;10.78;78.16;101215.13;5074369;28;45161;-75
2022/03/16 05:02:41;;;;;;;;;27.00;24.75;;;;;10.72;78.45;101220.31;5092028;28;45338;-76
2022/03/16 05:05:08;;;;;;;;;28.75;24.75;;;;;11.12;78.11;101279.75;5044834;28;46178;-76
2022/03/16 05:07:34;;;;;;;;;29.00;26.50;;;;;11.07;78.44;101286.69;5061686;28;45359;-77
2022/03/16 05:09:59;;;;;;;;;27.75;27.50;;;;;10.63;78.53;101207.00;5071528;28;45377;-76
2022/03/16 05:12:24;;;;;;;;;29.00;25.00;;;;;10.41;78.12;101177.69;5072923;28;45235;-78
2022/03/16 05:14:50;;;;;;;;;27.00;25.25;;;;;10.89;78.70;101257.44;5081371;28;45458;-82
2022/03/16 05:17:16;;;;;;;;;23.75;23.00;;;;;10.69;78.91;101226.41;5093061;28;45405;-80
2022/03/16 05:19:41;;;;;;;;;27.25;24.75;;;;;10.91;78.97;101258.38;5069216;28;45750;-82
2022/03/16 05:22:07;;;;;;;;;32.50;31.25;;;;;10.86;79.19;101263.56;5060242;28;45533;-81
2022/03/16 05:24:32;;;;;;;;;31.00;27.50;;;;;10.72;79.08;101244.91;5062216;28;45484;-83
2022/03/16 05:26:57;;;;;;;;;24.50;23.00;;;;;10.79;79.95;101278.38;5077188;28;45389;-77
2022/03/16 05:29:23;;;;;;;;;25.00;22.00;;;;;10.53;79.33;101227.06;5076015;28;45242;-84
2022/03/16 05:31:48;;;;;;;;;26.25;24.00;;;;;10.65;79.53;101255.34;5057594;28;45202;-81
2022/03/16 05:34:16;;;;;;;;;29.25;23.25;;;;;10.74;79.37;101279.19;5060034;28;45538;-80
2022/03/16 05:36:41;;;;;;;;;30.50;28.50;;;;;10.81;79.41;101279.31;5080471;28;45417;-85
2022/03/16 05:39:07;;;;;;;;;25.00;23.75;;;;;10.57;79.77;101257.84;5071051;28;45342;-81
2022/03/16 05:41:32;;;;;;;;;21.00;21.00;;;;;10.61;79.42;101261.41;5060397;28;45401;-85
2022/03/16 05:43:57;;;;;;;;;24.50;21.50;;;;;10.79;80.14;101303.84;5064105;28;45441;-84
2022/03/16 05:46:23;;;;;;;;;25.75;25.75;;;;;10.27;80.47;101209.09;5078268;28;45404;-84
2022/03/16 05:48:48;;;;;;;;;24.25;23.50;;;;;10.56;79.94;101250.81;5081738;28;45671;-81
2022/03/16 05:51:14;;;;;;;;;30.50;28.25;;;;;10.83;79.52;101301.31;5086371;28;45197;-82
2022/03/16 05:53:39;;;;;;;;;30.25;26.75;;;;;10.30;79.58;101220.53;5085686;28;45340;-80
2022/03/16 05:56:05;;;;;;;;;28.25;26.75;;;;;10.74;80.07;101290.63;5067733;28;45312;-85
2022/03/16 05:58:31;;;;;;;;;22.50;22.00;;;;;10.22;79.82;101194.94;5064820;28;45298;-84
2022/03/16 06:00:56;;;;;;;;;29.00;26.00;;;;;10.80;80.48;101288.09;5079524;28;46674;-86
2022/03/16 06:03:22;;;;;;;;;28.25;26.50;;;;;10.73;80.14;101272.16;5075758;28;45191;-83
2022/03/16 06:05:47;;;;;;;;;30.00;28.25;;;;;10.85;79.61;101294.28;5070439;28;45238;-84
2022/03/16 06:08:13;;;;;;;;;37.25;30.50;;;;;10.79;78.93;101280.13;5059367;28;45846;-78
2022/03/16 06:10:39;;;;;;;;;28.50;26.50;;;;;10.82;79.47;101281.09;5059295;28;45144;-80
2022/03/16 06:13:06;;;;;;;;;28.25;24.00;;;;;10.69;79.31;101241.31;5059039;28;46002;-86
2022/03/16 06:15:39;;;;;;;;;29.75;25.50;;;;;10.99;78.54;101293.63;5042228;28;45482;-78
2022/03/16 06:18:05;;;;;;;;;32.00;28.50;;;;;10.92;79.15;101289.13;5059863;28;45393;-81
2022/03/16 06:20:32;;;;;;;;;33.50;26.50;;;;;10.96;78.74;101299.72;5062939;28;45389;-83
2022/03/16 06:22:58;;;;;;;;;32.00;30.25;;;;;10.52;78.75;101220.91;5062751;28;46417;-79
2022/03/16 06:25:24;;;;;;;;;29.75;28.50;;;;;11.02;78.69;101293.66;5074156;28;47105;-76
2022/03/16 06:27:50;;;;;;;;;38.75;30.75;;;;;11.02;79.11;101304.22;5060452;28;45421;-77
2022/03/16 06:30:15;;;;;;;;;31.75;30.50;;;;;10.74;79.10;101250.19;5059997;28;45399;-76
2022/03/16 06:32:45;;;;;;;;;25.75;25.25;;;;;11.03;79.55;101305.97;5057228;28;45870;-80
2022/03/16 06:35:11;;;;;;;;;31.25;28.50;;;;;11.03;78.73;101312.13;5058115;28;45525;-76
2022/03/16 06:37:49;;;;;;;;;29.00;23.75;;;;;11.04;78.86;101319.19;5055703;28;45492;-77
2022/03/16 06:40:15;;;;;;;;;25.00;23.25;;;;;11.06;78.77;101306.00;5073167;27;45644;-83
2022/03/16 06:42:57;;;;;;;;;27.75;24.75;;;;;11.09;79.24;101306.09;5061034;28;45885;-85
2022/03/16 06:45:24;;;;;;;;;33.75;31.75;;;;;11.00;78.69;101293.66;5057815;28;45409;-84
2022/03/16 06:47:50;;;;;;;;;28.50;26.00;;;;;11.14;78.54;101314.94;5060351;28;45214;-89
2022/03/16 06:50:18;;;;;;;;;27.75;24.25;;;;;11.11;78.14;101320.16;5059889;28;45212;-78
2022/03/16 06:52:44;;;;;;;;;35.25;31.25;;;;;11.02;78.37;101309.47;5043139;28;45276;-80
2022/03/16 06:55:10;;;;;;;;;32.25;28.50;;;;;11.11;77.97;101317.53;5057676;28;45514;-80
2022/03/16 06:57:36;;;;;;;;;36.00;31.50;;;;;11.18;77.85;101329.94;5058132;28;45429;-78
2022/03/16 07:00:03;;;;;;;;;33.00;31.00;;;;;11.15;78.57;101316.69;5058076;28;45554;-81
2022/03/16 07:02:29;;;;;;;;;32.25;30.25;;;;;10.99;77.59;101297.16;5063584;28;45454;-79
2022/03/16 07:04:58;;;;;;;;;26.00;25.00;;;;;11.23;78.43;101335.25;5069057;28;44715;-90
2022/03/16 07:07:26;;;;;;;;;32.00;28.00;;;;;10.90;78.13;101269.78;5043065;28;45417;-85
2022/03/16 07:09:52;;;;;;;;;32.00;26.25;;;;;11.06;77.71;101293.72;5060306;28;45511;-87
2022/03/16 07:12:17;;;;;;;;;32.75;29.00;;;;;11.33;77.27;101340.69;5062693;28;45399;-84
2022/03/16 07:14:43;;;;;;;;;33.25;30.25;;;;;11.37;77.01;101331.97;5044083;28;45507;-87
2022/03/16 07:17:08;;;;;;;;;28.50;27.50;;;;;11.27;77.32;101327.44;5077720;28;45606;-88
2022/03/16 07:19:33;;;;;;;;;31.50;30.50;;;;;10.65;78.10;101218.44;5063731;28;45388;-87
2022/03/16 07:22:00;;;;;;;;;38.00;31.00;;;;;11.06;77.64;101295.47;5081622;28;45903;-80
2022/03/16 07:24:26;;;;;;;;;33.25;31.00;;;;;11.35;77.04;101338.06;5072924;28;45401;-80
2022/03/16 07:26:55;;;;;;;;;32.50;32.50;;;;;11.00;77.05;101264.66;5071670;28;45427;-86
2022/03/16 07:29:21;;;;;;;;;32.50;32.00;;;;;10.86;77.37;101250.38;5061719;28;45367;-82
2022/03/16 07:31:47;;;;;;;;;29.50;28.50;;;;;11.46;77.33;101332.97;5068887;28;45554;-80
2022/03/16 07:34:13;;;;;;;;;34.00;29.75;;;;;11.27;76.94;101298.44;5076047;28;45417;-81
2022/03/16 07:36:38;;;;;;;;;35.25;31.50;;;;;11.14;76.60;101275.38;5066474;28;45330;-80
2022/03/16 07:39:03;;;;;;;;;38.75;34.50;;;;;11.35;77.19;101324.88;5079513;28;45386;-80
2022/03/16 07:41:29;;;;;;;;;38.00;34.00;;;;;11.36;76.81;101322.28;5075223;28;45401;-79
2022/03/16 07:43:54;;;;;;;;;29.00;28.50;;;;;11.40;77.21;101320.56;5057973;28;45468;-79
2022/03/16 07:46:20;;;;;;;;;33.75;29.25;;;;;11.14;77.38;101276.25;5057228;28;45394;-80
2022/03/16 07:48:45;;;;;;;;;29.75;28.50;;;;;11.56;76.82;101340.13;5057022;28;45320;-81
2022/03/16 07:51:11;;;;;;;;;42.25;33.75;;;;;11.47;76.64;101330.34;5039790;28;46630;-80
2022/03/16 07:53:37;;;;;;;;;37.00;34.00;;;;;11.03;77.36;101269.97;5057538;28;45533;-79
2022/03/16 07:56:03;;;;;;;;;27.00;25.75;;;;;10.83;76.32;101243.31;5053919;28;45269;-81
2022/03/16 07:58:29;;;;;;;;;33.00;29.25;;;;;11.37;77.00;101326.69;5059486;28;45247;-79
2022/03/16 08:00:54;;;;;;;;;30.50;28.75;;;;;11.37;76.98;101325.81;5056327;28;46221;-81
2022/03/16 08:03:20;;;;;;;;;34.75;34.00;;;;;11.40;76.11;101310.00;5057010;28;45500;-80
2022/03/16 08:05:47;;;;;;;;;34.50;34.00;;;;;11.38;76.69;101301.19;5057365;28;45555;-81
2022/03/16 08:08:13;;;;;;;;;39.25;36.75;;;;;11.03;76.54;101226.88;5054798;28;45377;-81
2022/03/16 08:10:38;;;;;;;;;31.75;30.50;;;;;11.68;75.93;101317.41;5054806;28;45929;-81
2022/03/16 08:13:03;;;;;;;;;36.00;27.75;;;;;11.75;75.76;101330.69;5055725;28;45481;-82
2022/03/16 08:15:29;;;;;;;;;31.75;30.00;;;;;11.59;75.45;101293.53;5057421;28;45435;-80
2022/03/16 08:17:54;;;;;;;;;32.75;30.25;;;;;11.76;75.57;101317.50;5057113;28;45334;-83
2022/03/16 08:20:20;;;;;;;;;44.00;37.75;;;;;11.71;75.56;101321.81;5050392;28;45896;-82
2022/03/16 08:22:47;;;;;;;;;32.75;31.00;;;;;11.75;75.84;101312.22;5055246;28;45467;-79
2022/03/16 08:25:13;;;;;;;;;30.25;27.50;;;;;11.62;75.67;101287.41;5055129;28;45386;-80
2022/03/16 08:27:41;;;;;;;;;39.50;34.25;;;;;11.74;75.99;101313.97;5053465;28;45346;-79
2022/03/16 08:30:09;;;;;;;;;39.75;34.50;;;;;11.73;75.77;101308.69;5054147;28;46273;-80
2022/03/16 08:32:34;;;;;;;;;32.25;31.00;;;;;11.79;75.17;101320.16;5057219;28;45386;-79
2022/03/16 08:35:00;;;;;;;;;29.00;23.00;;;;;11.70;74.66;101310.38;5066295;28;45380;-79
2022/03/16 08:37:26;;;;;;;;;34.75;31.00;;;;;11.78;75.44;101312.25;5056660;28;45529;-80
2022/03/16 08:39:51;;;;;;;;;35.00;33.00;;;;;11.87;74.79;101312.38;5055484;28;46084;-80
2022/03/16 08:42:20;;;;;;;;;36.75;33.00;;;;;11.67;75.16;101273.41;5054496;28;45591;-80
2022/03/16 08:44:45;;;;;;;;;29.50;27.00;;;;;11.96;74.07;101320.41;5062247;28;45361;-82
2022/03/16 08:47:11;;;;;;;;;30.00;28.75;;;;;11.97;74.03;101316.88;5060877;28;45459;-83
2022/03/16 08:49:37;;;;;;;;;31.50;30.25;;;;;11.96;74.07;101321.28;5056977;28;46118;-82
2022/03/16 08:52:04;;;;;;;;;31.00;30.75;;;;;11.95;74.36;101326.56;5063998;28;45486;-83
2022/03/16 08:54:30;;;;;;;;;32.50;30.25;;;;;11.90;74.63;101317.69;5068359;28;45455;-83
2022/03/16 08:56:56;;;;;;;;;33.25;30.50;;;;;12.03;73.68;101338.09;5077630;28;45335;-83
2022/03/16 08:59:23;;;;;;;;;37.50;33.00;;;;;11.82;74.41;101308.78;5062474;28;46025;-83
2022/03/16 09:01:49;;;;;;;;;40.75;34.00;;;;;11.89;73.83;101308.88;5056423;28;45230;-86
2022/03/16 09:04:15;;;;;;;;;31.25;31.25;;;;;12.22;73.64;101355.91;5058212;28;45414;-85
2022/03/16 09:06:41;;;;;;;;;35.50;31.50;;;;;12.14;73.38;101341.72;5058560;28;45502;-84
2022/03/16 09:09:06;;;;;;;;;30.50;27.50;;;;;12.26;73.70;101355.06;5059537;28;46983;-84
2022/03/16 09:11:32;;;;;;;;;35.00;33.50;;;;;12.23;73.13;101344.47;5060049;28;45322;-84
2022/03/16 09:13:57;;;;;;;;;31.50;30.25;;;;;12.22;73.24;101329.50;5060182;28;45446;-81
2022/03/16 09:16:23;;;;;;;;;34.50;28.25;;;;;12.14;72.50;101311.78;5058618;28;45548;-81
2022/03/16 09:18:49;;;;;;;;;34.50;31.00;;;;;12.22;73.03;101323.31;5059930;28;46109;-83
2022/03/16 09:21:15;;;;;;;;;31.00;29.50;;;;;12.42;72.68;101342.00;5057740;28;45501;-82
2022/03/16 09:23:41;;;;;;;;;35.00;33.00;;;;;12.54;71.82;101350.94;5059949;28;45510;-83
2022/03/16 09:26:07;;;;;;;;;36.00;32.75;;;;;12.53;72.14;101349.16;5061825;28;45321;-83
2022/03/16 09:28:32;;;;;;;;;38.00;35.00;;;;;12.46;72.49;101341.16;5060733;28;46179;-82
2022/03/16 09:30:58;;;;;;;;;27.75;26.50;;;;;12.36;72.40;101319.03;5059513;28;45286;-82
2022/03/16 09:33:24;;;;;;;;;36.25;30.75;;;;;12.52;71.73;101339.47;5060341;28;45378;-81
2022/03/16 09:35:51;;;;;;;;;29.50;29.00;;;;;12.60;71.71;101344.81;5059961;28;45261;-82
2022/03/16 09:38:20;;;;;;;;;32.75;31.25;;;;;12.65;72.04;101348.38;5058281;28;46137;-83
2022/03/16 09:40:52;;;;;;;;;31.50;29.50;;;;;12.74;71.50;101356.38;5059884;28;45309;-82
2022/03/16 09:43:19;;;;;;;;;36.00;31.75;;;;;12.64;70.86;101320.16;5059988;28;45411;-83
2022/03/16 09:45:55;;;;;;;;;33.25;30.25;;;;;12.95;71.03;101349.53;5060071;28;45323;-83
2022/03/16 09:48:23;;;;;;;;;37.75;35.25;;;;;12.98;70.66;101338.94;5059532;28;46497;-83
2022/03/16 09:50:49;;;;;;;;;30.50;27.50;;;;;13.08;70.29;101333.72;5059626;28;45371;-83
2022/03/16 09:53:15;;;;;;;;;37.75;32.50;;;;;13.19;69.64;101338.19;5059360;28;45550;-81
2022/03/16 09:55:41;;;;;;;;;32.00;30.00;;;;;13.27;69.65;101331.22;5059906;28;45290;-81
2022/03/16 09:58:07;;;;;;;;;38.25;30.75;;;;;13.36;68.89;101332.16;5071532;28;45333;-83
2022/03/16 10:00:33;;;;;;;;;36.00;33.00;;;;;13.36;68.65;101328.66;5080601;28;45329;-83
2022/03/16 10:03:02;;;;;;;;;30.00;30.00;;;;;13.50;68.54;101332.25;5082004;28;45530;-83
2022/03/16 10:05:28;;;;;;;;;24.25;19.75;;;;;13.42;68.27;101310.16;5079708;28;45421;-83
2022/03/16 10:07:54;;;;;;;;;34.25;31.75;;;;;13.60;68.44;101323.47;5096447;27;48436;-82
2022/03/16 10:13:14;;;;;;;;;34.50;31.25;;;;;13.69;67.24;101307.63;5079939;28;45305;-82
2022/03/16 10:15:39;;;;;;;;;33.25;29.75;;;;;13.85;67.33;101327.09;5079543;28;45440;-82
2022/03/16 10:18:05;;;;;;;;;38.50;34.00;;;;;13.91;67.23;101319.16;5079212;28;46401;-82
2022/03/16 10:20:35;;;;;;;;;33.25;30.50;;;;;13.92;66.53;101291.81;5078911;28;45363;-82
2022/03/16 10:23:06;;;;;;;;;36.75;34.00;;;;;13.88;65.67;101274.16;5079579;28;45333;-82
2022/03/16 10:25:37;;;;;;;;;40.75;31.00;;;;;14.07;66.46;101305.97;5079512;28;45431;-81
2022/03/16 10:28:13;;;;;;;;;36.25;35.00;;;;;14.08;65.92;101292.72;5079379;28;46460;-81
2022/03/16 10:31:00;;;;;;;;;36.75;31.00;;;;;14.27;65.39;101312.19;5079125;28;45309;-81
2022/03/16 10:33:30;;;;;;;;;33.25;31.75;;;;;14.36;64.66;101317.50;5078832;28;45429;-81
2022/03/16 10:36:07;;;;;;;;;32.00;30.25;;;;;14.16;64.90;101268.91;5061570;28;45608;-82
2022/03/16 10:38:43;;;;;;;;;32.25;31.75;;;;;14.43;64.86;101321.94;5081393;28;45239;-81
2022/03/16 10:47:19;;;;;;;;;30.00;28.25;;;;;14.53;63.85;101291.03;5079272;28;45349;-81
2022/03/16 10:49:48;;;;;;;;;33.00;28.50;;;;;14.63;63.97;101302.53;5060616;28;45854;-82
2022/03/16 10:52:17;;;;;;;;;35.75;31.50;;;;;14.71;63.80;101309.59;5078964;28;45515;-82
2022/03/16 10:54:44;;;;;;;;;31.50;30.00;;;;;14.73;63.83;101302.53;5079547;28;45213;-81
2022/03/16 10:57:10;;;;;;;;;37.25;31.50;;;;;14.86;63.31;101307.81;5079516;28;45424;-80
2022/03/16 10:59:37;;;;;;;;;34.25;31.00;;;;;15.00;63.01;101298.06;5078687;28;45268;-81
2022/03/16 11:02:12;;;;;;;;;30.25;28.50;;;;;15.05;62.77;101290.97;5079081;28;45288;-81
2022/03/16 11:04:42;;;;;;;;;33.75;30.75;;;;;15.12;62.62;101276.81;5079151;28;45548;-82
2022/03/16 11:07:08;;;;;;;;;31.75;30.25;;;;;15.30;62.35;101268.78;5094792;27;45408;-82
2022/03/16 11:09:35;;;;;;;;;31.75;28.50;;;;;15.43;61.79;101264.31;5078929;28;46316;-81
2022/03/16 11:14:50;;;;;;;;;34.50;31.75;;;;;15.69;61.29;101256.25;5079148;28;45487;-81
2022/03/16 11:17:17;;;;;;;;;27.75;24.75;;;;;15.72;60.61;101228.78;5081245;28;45370;-80